createdAt,value
2017-02-13T00:00:43.947Z,0
2017-02-13T00:01:44.651Z,0
2017-02-13T00:02:45.357Z,0
2017-02-13T00:03:46.052Z,0
2017-02-13T00:04:46.776Z,0
2017-02-13T00:05:47.484Z,0
2017-02-13T00:06:48.169Z,0
2017-02-13T00:07:48.894Z,0
2017-02-13T00:08:49.632Z,0
2017-02-13T00:09:50.344Z,0
2017-02-13T00:10:51.046Z,0
2017-02-13T00:11:51.739Z,0
2017-02-13T00:12:52.439Z,0
2017-02-13T00:13:53.158Z,0
2017-02-13T00:14:53.908Z,0
2017-02-13T00:15:54.660Z,0
2017-02-13T00:16:55.450Z,0
2017-02-13T00:17:56.179Z,0
2017-02-13T00:18:56.910Z,0
2017-02-13T00:19:57.592Z,0
2017-02-13T00:20:58.423Z,0
2017-02-13T00:21:59.074Z,0
2017-02-13T00:22:59.853Z,0
2017-02-13T00:24:00.540Z,0
2017-02-13T00:25:01.232Z,0
2017-02-13T00:26:01.934Z,0
2017-02-13T00:27:02.642Z,0
2017-02-13T00:28:03.376Z,0
2017-02-13T00:29:04.087Z,0
2017-02-13T00:30:04.820Z,0
2017-02-13T00:31:05.517Z,0
2017-02-13T00:32:06.295Z,0
2017-02-13T00:33:07.023Z,0
2017-02-13T00:34:07.718Z,0
2017-02-13T00:35:08.421Z,0
2017-02-13T00:36:09.110Z,0
2017-02-13T00:37:09.859Z,0
2017-02-13T00:38:10.698Z,0
2017-02-13T00:39:11.428Z,0
2017-02-13T00:40:12.150Z,0
2017-02-13T00:41:12.869Z,0
2017-02-13T00:42:13.593Z,0
2017-02-13T00:43:14.286Z,0
2017-02-13T00:44:15.106Z,0
2017-02-13T00:45:15.815Z,0
2017-02-13T00:46:17.364Z,0
2017-02-13T00:47:18.152Z,0
2017-02-13T00:48:19.009Z,0
2017-02-13T00:49:19.740Z,0
2017-02-13T00:50:20.487Z,0
2017-02-13T00:51:21.201Z,0
2017-02-13T00:52:21.911Z,0
2017-02-13T00:53:22.663Z,0
2017-02-13T00:54:23.452Z,0
2017-02-13T00:55:24.151Z,0
2017-02-13T00:56:24.860Z,0
2017-02-13T00:57:25.622Z,0
2017-02-13T00:58:26.333Z,0
2017-02-13T00:59:27.046Z,0
2017-02-13T01:00:27.753Z,0
2017-02-13T01:01:28.468Z,0
2017-02-13T01:02:29.196Z,0
2017-02-13T01:03:30.167Z,0
2017-02-13T01:04:30.714Z,0
2017-02-13T01:05:31.418Z,0
2017-02-13T01:06:32.131Z,0
2017-02-13T01:07:32.913Z,0
2017-02-13T01:08:33.653Z,0
2017-02-13T01:09:34.362Z,0
2017-02-13T01:10:35.084Z,0
2017-02-13T01:11:35.791Z,0
2017-02-13T01:12:36.522Z,0
2017-02-13T01:13:37.236Z,0
2017-02-13T01:14:37.967Z,0
2017-02-13T01:15:38.652Z,0
2017-02-13T01:16:39.382Z,0
2017-02-13T01:17:40.082Z,0
2017-02-13T01:18:40.793Z,0
2017-02-13T01:19:41.476Z,0
2017-02-13T01:20:42.163Z,0
2017-02-13T01:21:42.873Z,0
2017-02-13T01:22:43.555Z,0
2017-02-13T01:23:44.251Z,0
2017-02-13T01:24:44.969Z,0
2017-02-13T01:25:45.665Z,0
2017-02-13T01:26:46.369Z,0
2017-02-13T01:27:47.078Z,0
2017-02-13T01:28:47.787Z,0
2017-02-13T01:29:48.503Z,0
2017-02-13T01:30:49.227Z,0
2017-02-13T01:31:50.069Z,0
2017-02-13T01:32:50.787Z,0
2017-02-13T01:33:51.511Z,0
2017-02-13T01:34:52.205Z,0
2017-02-13T01:35:52.948Z,0
2017-02-13T01:36:53.673Z,0
2017-02-13T01:37:54.372Z,0
2017-02-13T01:38:55.175Z,0
2017-02-13T01:39:55.879Z,0
2017-02-13T01:40:56.570Z,0
2017-02-13T01:41:57.287Z,0
2017-02-13T01:42:58.017Z,0
2017-02-13T01:43:58.709Z,0
2017-02-13T01:44:59.402Z,0
2017-02-13T01:46:00.131Z,0
2017-02-13T01:47:00.833Z,0
2017-02-13T01:48:01.528Z,0
2017-02-13T01:49:02.231Z,0
2017-02-13T01:50:02.945Z,0
2017-02-13T01:51:03.675Z,0
2017-02-13T01:52:04.374Z,0
2017-02-13T01:53:05.075Z,0
2017-02-13T01:54:05.767Z,0
2017-02-13T01:55:06.476Z,0
2017-02-13T01:56:07.177Z,0
2017-02-13T01:57:07.885Z,0
2017-02-13T01:58:08.589Z,0
2017-02-13T01:59:09.273Z,0
2017-02-13T02:00:09.986Z,0
2017-02-13T02:01:10.673Z,0
2017-02-13T02:02:11.357Z,0
2017-02-13T02:03:12.087Z,0
2017-02-13T02:04:12.996Z,0
2017-02-13T02:05:13.677Z,0
2017-02-13T02:06:14.368Z,0
2017-02-13T02:07:15.092Z,0
2017-02-13T02:08:15.802Z,0
2017-02-13T02:09:16.508Z,0
2017-02-13T02:10:17.207Z,0
2017-02-13T02:11:17.906Z,0
2017-02-13T02:12:18.632Z,0
2017-02-13T02:13:19.348Z,0
2017-02-13T02:14:20.103Z,0
2017-02-13T02:15:20.799Z,0
2017-02-13T02:16:21.579Z,0
2017-02-13T02:17:22.285Z,0
2017-02-13T02:18:22.999Z,0
2017-02-13T02:19:23.719Z,0
2017-02-13T02:20:24.451Z,0
2017-02-13T02:21:25.148Z,0
2017-02-13T02:22:25.835Z,0
2017-02-13T02:23:26.575Z,0
2017-02-13T02:24:27.291Z,0
2017-02-13T02:25:27.991Z,0
2017-02-13T02:26:28.709Z,0
2017-02-13T02:27:29.405Z,0
2017-02-13T02:28:30.107Z,0
2017-02-13T02:29:30.826Z,0
2017-02-13T02:30:31.543Z,0
2017-02-13T02:31:32.261Z,0
2017-02-13T02:32:33.002Z,0
2017-02-13T02:33:33.691Z,0
2017-02-13T02:34:34.375Z,0
2017-02-13T02:35:35.071Z,0
2017-02-13T02:36:35.762Z,0
2017-02-13T02:37:36.444Z,0
2017-02-13T02:38:37.168Z,0
2017-02-13T02:39:37.858Z,0
2017-02-13T02:40:38.556Z,0
2017-02-13T02:41:39.282Z,0
2017-02-13T02:42:40.009Z,0
2017-02-13T02:43:40.742Z,0
2017-02-13T02:44:41.507Z,0
2017-02-13T02:45:42.200Z,0
2017-02-13T02:46:42.899Z,0
2017-02-13T02:47:43.626Z,0
2017-02-13T02:48:44.322Z,0
2017-02-13T02:49:45.055Z,0
2017-02-13T02:50:45.780Z,0
2017-02-13T02:51:46.467Z,0
2017-02-13T02:52:47.160Z,0
2017-02-13T02:53:47.857Z,0
2017-02-13T02:54:48.546Z,0
2017-02-13T02:55:49.235Z,0
2017-02-13T02:56:49.938Z,0
2017-02-13T02:57:50.643Z,0
2017-02-13T02:58:51.403Z,0
2017-02-13T02:59:52.108Z,0
2017-02-13T03:00:52.824Z,0
2017-02-13T03:01:53.533Z,0
2017-02-13T03:02:54.243Z,0
2017-02-13T03:03:54.950Z,0
2017-02-13T03:04:55.638Z,0
2017-02-13T03:05:56.349Z,0
2017-02-13T03:06:57.046Z,0
2017-02-13T03:07:57.759Z,0
2017-02-13T03:08:58.463Z,0
2017-02-13T03:09:59.187Z,0
2017-02-13T03:10:59.874Z,0
2017-02-13T03:12:00.567Z,0
2017-02-13T03:13:01.283Z,0
2017-02-13T03:14:01.969Z,0
2017-02-13T03:15:02.673Z,0
2017-02-13T03:16:03.411Z,0
2017-02-13T03:17:04.123Z,0
2017-02-13T03:18:04.840Z,0
2017-02-13T03:19:05.569Z,0
2017-02-13T03:20:06.286Z,0
2017-02-13T03:21:06.977Z,0
2017-02-13T03:22:07.690Z,0
2017-02-13T03:23:08.412Z,0
2017-02-13T03:24:09.130Z,0
2017-02-13T03:25:09.829Z,0
2017-02-13T03:26:10.525Z,0
2017-02-13T03:27:11.217Z,0
2017-02-13T03:28:11.921Z,0
2017-02-13T03:29:12.635Z,0
2017-02-13T03:30:13.356Z,0
2017-02-13T03:31:14.049Z,0
2017-02-13T03:32:14.774Z,0
2017-02-13T03:33:15.462Z,0
2017-02-13T03:34:16.171Z,0
2017-02-13T03:35:16.887Z,0
2017-02-13T03:36:17.561Z,0
2017-02-13T03:37:18.228Z,0
2017-02-13T03:38:18.962Z,0
2017-02-13T03:39:19.718Z,0
2017-02-13T03:40:20.415Z,0
2017-02-13T03:41:21.128Z,0
2017-02-13T03:42:21.859Z,0
2017-02-13T03:43:22.540Z,0
2017-02-13T03:44:23.237Z,0
2017-02-13T03:45:23.929Z,0
2017-02-13T03:46:24.675Z,0
2017-02-13T03:47:25.373Z,0
2017-02-13T03:48:26.091Z,0
2017-02-13T03:49:26.805Z,0
2017-02-13T03:50:27.537Z,0
2017-02-13T03:51:28.263Z,0
2017-02-13T03:52:28.932Z,0
2017-02-13T03:53:29.654Z,0
2017-02-13T03:54:30.325Z,0
2017-02-13T03:55:31.019Z,0
2017-02-13T03:56:31.762Z,0
2017-02-13T03:57:32.494Z,0
2017-02-13T03:58:33.254Z,0
2017-02-13T03:59:33.952Z,0
2017-02-13T04:00:34.660Z,0
2017-02-13T04:01:35.379Z,0
2017-02-13T04:02:36.076Z,0
2017-02-13T04:03:36.787Z,0
2017-02-13T04:04:37.784Z,0
2017-02-13T04:05:38.495Z,0
2017-02-13T04:06:39.274Z,0
2017-02-13T04:07:40.040Z,0
2017-02-13T04:08:40.666Z,0
2017-02-13T04:09:41.391Z,0
2017-02-13T04:10:42.110Z,0
2017-02-13T04:11:42.830Z,0
2017-02-13T04:12:43.554Z,0
2017-02-13T04:13:44.260Z,0
2017-02-13T04:14:44.947Z,0
2017-02-13T04:15:45.656Z,0
2017-02-13T04:16:46.344Z,0
2017-02-13T04:17:47.051Z,0
2017-02-13T04:18:47.740Z,0
2017-02-13T04:19:48.439Z,0
2017-02-13T04:20:49.149Z,0
2017-02-13T04:21:49.930Z,0
2017-02-13T04:22:50.631Z,0
2017-02-13T04:23:51.341Z,0
2017-02-13T04:24:52.030Z,0
2017-02-13T04:25:52.704Z,0
2017-02-13T04:26:53.412Z,0
2017-02-13T04:27:54.115Z,0
2017-02-13T04:28:54.812Z,0
2017-02-13T04:29:55.511Z,0
2017-02-13T04:30:56.213Z,0
2017-02-13T04:31:56.905Z,0
2017-02-13T04:32:57.616Z,0
2017-02-13T04:33:58.335Z,0
2017-02-13T04:34:59.024Z,0
2017-02-13T04:35:59.735Z,0
2017-02-13T04:37:00.424Z,0
2017-02-13T04:38:01.130Z,0
2017-02-13T04:39:01.826Z,0
2017-02-13T04:40:02.528Z,0
2017-02-13T04:41:03.247Z,0
2017-02-13T04:42:03.930Z,0
2017-02-13T04:43:04.649Z,0
2017-02-13T04:44:05.404Z,0
2017-02-13T04:45:06.101Z,0
2017-02-13T04:46:06.815Z,0
2017-02-13T04:47:07.539Z,0
2017-02-13T04:48:08.273Z,0
2017-02-13T04:49:08.971Z,0
2017-02-13T04:50:09.668Z,0
2017-02-13T04:51:10.347Z,0
2017-02-13T04:52:11.059Z,0
2017-02-13T04:53:11.760Z,0
2017-02-13T04:54:12.453Z,0
2017-02-13T04:55:13.139Z,0
2017-02-13T04:56:13.833Z,0
2017-02-13T04:57:14.535Z,0
2017-02-13T04:58:15.252Z,0
2017-02-13T04:59:15.947Z,0
2017-02-13T05:00:16.640Z,0
2017-02-13T05:01:17.354Z,0
2017-02-13T05:02:18.037Z,0
2017-02-13T05:03:18.716Z,0
2017-02-13T05:04:19.413Z,0
2017-02-13T05:05:20.113Z,0
2017-02-13T05:06:20.826Z,0
2017-02-13T05:07:21.526Z,0
2017-02-13T05:08:22.235Z,0
2017-02-13T05:09:22.952Z,0
2017-02-13T05:10:23.648Z,0
2017-02-13T05:11:24.341Z,0
2017-02-13T05:12:25.038Z,0
2017-02-13T05:13:25.736Z,0
2017-02-13T05:14:26.433Z,0
2017-02-13T05:15:27.136Z,0
2017-02-13T05:16:27.847Z,0
2017-02-13T05:17:28.558Z,0
2017-02-13T05:18:29.258Z,0
2017-02-13T05:19:29.971Z,0
2017-02-13T05:20:31.556Z,0
2017-02-13T05:21:32.252Z,0
2017-02-13T05:22:32.975Z,0
2017-02-13T05:23:33.685Z,0
2017-02-13T05:24:34.401Z,0
2017-02-13T05:25:35.134Z,0
2017-02-13T05:26:35.832Z,0
2017-02-13T05:27:36.533Z,0
2017-02-13T05:28:37.222Z,0
2017-02-13T05:29:37.923Z,0
2017-02-13T05:30:38.600Z,0
2017-02-13T05:31:39.284Z,0
2017-02-13T05:32:39.994Z,0
2017-02-13T05:33:40.712Z,0
2017-02-13T05:34:41.392Z,0
2017-02-13T05:35:42.114Z,0
2017-02-13T05:36:42.854Z,0
2017-02-13T05:37:43.553Z,0
2017-02-13T05:38:44.253Z,0
2017-02-13T05:39:44.941Z,0
2017-02-13T05:40:45.645Z,0
2017-02-13T05:41:46.363Z,0
2017-02-13T05:42:47.029Z,0
2017-02-13T05:43:47.737Z,0
2017-02-13T05:44:48.419Z,0
2017-02-13T05:45:49.113Z,0
2017-02-13T05:46:49.830Z,0
2017-02-13T05:47:50.536Z,0
2017-02-13T05:48:51.234Z,0
2017-02-13T05:49:51.934Z,0
2017-02-13T05:50:52.606Z,0
2017-02-13T05:51:53.298Z,0
2017-02-13T05:52:53.998Z,0
2017-02-13T05:53:54.694Z,0
2017-02-13T05:54:55.394Z,0
2017-02-13T05:55:56.099Z,0
2017-02-13T05:56:56.800Z,0
2017-02-13T05:57:57.507Z,0
2017-02-13T05:58:58.191Z,0
2017-02-13T05:59:58.903Z,0
2017-02-13T06:00:59.615Z,0
2017-02-13T06:02:00.370Z,0
2017-02-13T06:03:01.080Z,0
2017-02-13T06:04:01.793Z,0
2017-02-13T06:05:02.471Z,0
2017-02-13T06:06:03.173Z,0
2017-02-13T06:07:03.877Z,0
2017-02-13T06:08:04.554Z,0
2017-02-13T06:09:05.264Z,0
2017-02-13T06:10:05.945Z,0
2017-02-13T06:11:06.718Z,0
2017-02-13T06:12:07.432Z,0
2017-02-13T06:13:08.152Z,0
2017-02-13T06:14:08.835Z,0
2017-02-13T06:15:09.545Z,0
2017-02-13T06:16:10.270Z,0
2017-02-13T06:17:10.936Z,0
2017-02-13T06:18:11.607Z,0
2017-02-13T06:19:12.325Z,0
2017-02-13T06:20:13.007Z,0
2017-02-13T06:21:13.742Z,0
2017-02-13T06:22:14.473Z,0
2017-02-13T06:23:15.176Z,0
2017-02-13T06:24:15.946Z,0
2017-02-13T06:25:16.671Z,0
2017-02-13T06:26:17.649Z,0
2017-02-13T06:27:18.341Z,0
2017-02-13T06:28:19.052Z,0
2017-02-13T06:29:19.780Z,0
2017-02-13T06:30:20.481Z,0
2017-02-13T06:31:21.158Z,5
2017-02-13T06:32:21.832Z,5
2017-02-13T06:33:22.504Z,5
2017-02-13T06:34:23.180Z,5
2017-02-13T06:35:23.849Z,5
2017-02-13T06:36:24.531Z,5
2017-02-13T06:37:25.249Z,5
2017-02-13T06:38:25.955Z,10
2017-02-13T06:39:26.661Z,10
2017-02-13T06:40:27.368Z,10
2017-02-13T06:41:28.099Z,10
2017-02-13T06:42:28.772Z,10
2017-02-13T06:43:29.484Z,15
2017-02-13T06:44:30.170Z,15
2017-02-13T06:45:30.880Z,15
2017-02-13T06:46:31.555Z,15
2017-02-13T06:47:32.298Z,20
2017-02-13T06:48:33.020Z,20
2017-02-13T06:49:33.719Z,20
2017-02-13T06:50:34.414Z,20
2017-02-13T06:51:35.114Z,25
2017-02-13T06:52:35.811Z,25
2017-02-13T06:53:36.516Z,25
2017-02-13T06:54:37.233Z,30
2017-02-13T06:55:37.937Z,30
2017-02-13T06:56:38.637Z,35
2017-02-13T06:57:39.356Z,35
2017-02-13T06:58:40.077Z,35
2017-02-13T06:59:40.765Z,40
2017-02-13T07:00:41.475Z,40
2017-02-13T07:01:42.153Z,45
2017-02-13T07:02:42.827Z,45
2017-02-13T07:03:43.543Z,50
2017-02-13T07:04:44.250Z,50
2017-02-13T07:05:44.964Z,50
2017-02-13T07:06:45.660Z,55
2017-02-13T07:07:46.358Z,55
2017-02-13T07:08:47.062Z,60
2017-02-13T07:09:47.736Z,60
2017-02-13T07:10:48.463Z,65
2017-02-13T07:11:49.172Z,65
2017-02-13T07:12:49.910Z,70
2017-02-13T07:13:50.623Z,70
2017-02-13T07:14:51.323Z,75
2017-02-13T07:15:52.033Z,75
2017-02-13T07:16:52.720Z,80
2017-02-13T07:17:53.417Z,80
2017-02-13T07:18:54.117Z,85
2017-02-13T07:19:54.845Z,85
2017-02-13T07:20:55.540Z,90
2017-02-13T07:21:56.215Z,90
2017-02-13T07:22:56.929Z,95
2017-02-13T07:23:57.629Z,95
2017-02-13T07:24:58.333Z,95
2017-02-13T07:25:59.037Z,100
2017-02-13T07:26:59.731Z,100
2017-02-13T07:28:00.420Z,105
2017-02-13T07:29:01.127Z,105
2017-02-13T07:30:01.816Z,110
2017-02-13T07:31:02.511Z,110
2017-02-13T07:32:03.220Z,115
2017-02-13T07:33:03.923Z,120
2017-02-13T07:34:04.643Z,120
2017-02-13T07:35:05.361Z,120
2017-02-13T07:36:06.077Z,125
2017-02-13T07:37:06.778Z,125
2017-02-13T07:38:07.480Z,130
2017-02-13T07:39:08.212Z,135
2017-02-13T07:40:08.916Z,135
2017-02-13T07:41:09.614Z,140
2017-02-13T07:42:10.319Z,140
2017-02-13T07:43:11.027Z,145
2017-02-13T07:44:11.718Z,145
2017-02-13T07:45:12.496Z,150
2017-02-13T07:46:13.213Z,150
2017-02-13T07:47:13.908Z,155
2017-02-13T07:48:14.629Z,160
2017-02-13T07:49:15.347Z,160
2017-02-13T07:50:16.052Z,165
2017-02-13T07:51:16.788Z,165
2017-02-13T07:52:17.536Z,170
2017-02-13T07:53:18.247Z,175
2017-02-13T07:54:18.937Z,190
2017-02-13T07:55:19.653Z,220
2017-02-13T07:56:20.342Z,230
2017-02-13T07:57:21.061Z,245
2017-02-13T07:58:21.764Z,250
2017-02-13T07:59:22.477Z,235
2017-02-13T08:00:23.175Z,265
2017-02-13T08:01:23.891Z,260
2017-02-13T08:02:24.600Z,255
2017-02-13T08:03:25.289Z,250
2017-02-13T08:04:25.969Z,250
2017-02-13T08:05:26.669Z,250
2017-02-13T08:06:27.380Z,245
2017-02-13T08:07:28.071Z,245
2017-02-13T08:08:28.812Z,250
2017-02-13T08:09:29.479Z,250
2017-02-13T08:10:30.187Z,245
2017-02-13T08:11:30.881Z,255
2017-02-13T08:12:31.584Z,265
2017-02-13T08:13:32.300Z,255
2017-02-13T08:14:32.991Z,240
2017-02-13T08:15:33.710Z,235
2017-02-13T08:16:34.410Z,240
2017-02-13T08:17:35.126Z,255
2017-02-13T08:18:35.842Z,270
2017-02-13T08:19:36.568Z,250
2017-02-13T08:20:37.345Z,265
2017-02-13T08:21:38.089Z,280
2017-02-13T08:22:38.811Z,285
2017-02-13T08:23:39.528Z,290
2017-02-13T08:24:40.231Z,305
2017-02-13T08:25:40.933Z,305
2017-02-13T08:26:41.662Z,290
2017-02-13T08:27:42.470Z,255
2017-02-13T08:28:43.304Z,280
2017-02-13T08:29:44.025Z,350
2017-02-13T08:30:44.750Z,390
2017-02-13T08:31:45.452Z,405
2017-02-13T08:32:46.144Z,340
2017-02-13T08:33:46.848Z,295
2017-02-13T08:34:47.554Z,325
2017-02-13T08:35:48.275Z,305
2017-02-13T08:36:48.997Z,305
2017-02-13T08:37:49.726Z,335
2017-02-13T08:38:50.415Z,340
2017-02-13T08:39:51.140Z,325
2017-02-13T08:40:51.900Z,325
2017-02-13T08:41:52.848Z,370
2017-02-13T08:42:53.559Z,350
2017-02-13T08:43:54.275Z,340
2017-02-13T08:44:54.999Z,350
2017-02-13T08:45:55.709Z,330
2017-02-13T08:46:56.423Z,365
2017-02-13T08:47:57.159Z,400
2017-02-13T08:48:57.890Z,415
2017-02-13T08:49:58.599Z,445
2017-02-13T08:50:59.320Z,470
2017-02-13T08:52:00.021Z,475
2017-02-13T08:53:00.720Z,480
2017-02-13T08:54:01.438Z,460
2017-02-13T08:55:02.155Z,470
2017-02-13T08:56:02.872Z,515
2017-02-13T08:57:03.594Z,540
2017-02-13T08:58:04.478Z,565
2017-02-13T08:59:05.196Z,580
2017-02-13T09:00:05.902Z,590
2017-02-13T09:01:06.606Z,605
2017-02-13T09:02:07.301Z,600
2017-02-13T09:03:08.015Z,600
2017-02-13T09:04:08.741Z,600
2017-02-13T09:05:09.447Z,610
2017-02-13T09:06:10.145Z,605
2017-02-13T09:07:10.851Z,605
2017-02-13T09:08:11.591Z,605
2017-02-13T09:09:12.316Z,570
2017-02-13T09:10:13.027Z,385
2017-02-13T09:11:13.760Z,285
2017-02-13T09:12:14.485Z,285
2017-02-13T09:13:15.194Z,290
2017-02-13T09:14:15.902Z,280
2017-02-13T09:15:16.615Z,285
2017-02-13T09:16:17.338Z,280
2017-02-13T09:17:18.045Z,280
2017-02-13T09:18:18.744Z,280
2017-02-13T09:19:19.442Z,280
2017-02-13T09:20:20.184Z,280
2017-02-13T09:21:20.887Z,280
2017-02-13T09:22:21.577Z,285
2017-02-13T09:23:22.288Z,285
2017-02-13T09:24:22.984Z,285
2017-02-13T09:25:23.726Z,285
2017-02-13T09:26:24.421Z,285
2017-02-13T09:27:25.150Z,280
2017-02-13T09:28:25.869Z,280
2017-02-13T09:29:26.552Z,280
2017-02-13T09:30:27.260Z,280
2017-02-13T09:31:27.978Z,280
2017-02-13T09:32:28.695Z,280
2017-02-13T09:33:29.419Z,280
2017-02-13T09:34:30.161Z,280
2017-02-13T09:35:30.858Z,285
2017-02-13T09:36:31.565Z,280
2017-02-13T09:37:32.300Z,280
2017-02-13T09:38:33.041Z,285
2017-02-13T09:39:33.742Z,285
2017-02-13T09:40:34.456Z,285
2017-02-13T09:41:35.165Z,280
2017-02-13T09:42:35.862Z,285
2017-02-13T09:43:36.563Z,280
2017-02-13T09:44:37.262Z,280
2017-02-13T09:45:37.980Z,280
2017-02-13T09:46:38.711Z,280
2017-02-13T09:47:39.411Z,280
2017-02-13T09:48:40.151Z,280
2017-02-13T09:49:40.859Z,280
2017-02-13T09:50:41.606Z,280
2017-02-13T09:51:42.345Z,280
2017-02-13T09:52:43.024Z,280
2017-02-13T09:53:43.755Z,280
2017-02-13T09:54:44.470Z,280
2017-02-13T09:55:45.191Z,280
2017-02-13T09:56:45.915Z,280
2017-02-13T09:57:46.623Z,275
2017-02-13T09:58:47.322Z,280
2017-02-13T09:59:48.041Z,275
2017-02-13T10:00:48.772Z,275
2017-02-13T10:01:49.499Z,280
2017-02-13T10:02:50.208Z,280
2017-02-13T10:03:50.907Z,275
2017-02-13T10:04:51.607Z,275
2017-02-13T10:05:52.339Z,275
2017-02-13T10:06:53.040Z,270
2017-02-13T10:07:53.729Z,270
2017-02-13T10:08:54.450Z,270
2017-02-13T10:09:55.163Z,275
2017-02-13T10:10:55.857Z,270
2017-02-13T10:11:56.565Z,270
2017-02-13T10:12:57.280Z,270
2017-02-13T10:13:57.989Z,270
2017-02-13T10:14:58.720Z,265
2017-02-13T10:15:59.474Z,265
2017-02-13T10:17:00.179Z,265
2017-02-13T10:18:01.017Z,265
2017-02-13T10:19:01.716Z,265
2017-02-13T10:20:02.485Z,265
2017-02-13T10:21:03.210Z,265
2017-02-13T10:22:03.897Z,265
2017-02-13T10:23:04.599Z,270
2017-02-13T10:24:05.309Z,265
2017-02-13T10:25:06.010Z,265
2017-02-13T10:26:06.730Z,265
2017-02-13T10:27:07.419Z,265
2017-02-13T10:28:08.150Z,265
2017-02-13T10:29:08.873Z,265
2017-02-13T10:30:09.579Z,260
2017-02-13T10:31:10.267Z,260
2017-02-13T10:32:10.990Z,260
2017-02-13T10:33:11.711Z,260
2017-02-13T10:34:12.400Z,260
2017-02-13T10:35:13.133Z,260
2017-02-13T10:36:13.878Z,260
2017-02-13T10:37:14.607Z,260
2017-02-13T10:38:15.320Z,260
2017-02-13T10:39:16.034Z,260
2017-02-13T10:40:16.754Z,260
2017-02-13T10:41:17.448Z,260
2017-02-13T10:42:18.154Z,260
2017-02-13T10:43:18.837Z,260
2017-02-13T10:44:19.543Z,260
2017-02-13T10:45:20.249Z,260
2017-02-13T10:46:20.962Z,255
2017-02-13T10:47:21.680Z,255
2017-02-13T10:48:22.417Z,255
2017-02-13T10:49:23.128Z,255
2017-02-13T10:50:23.846Z,255
2017-02-13T10:51:24.556Z,255
2017-02-13T10:52:25.270Z,255
2017-02-13T10:53:25.980Z,255
2017-02-13T10:54:26.734Z,250
2017-02-13T10:55:27.477Z,250
2017-02-13T10:56:28.206Z,250
2017-02-13T10:57:28.918Z,250
2017-02-13T10:58:29.615Z,250
2017-02-13T10:59:30.315Z,250
2017-02-13T11:00:31.029Z,250
2017-02-13T11:01:31.755Z,245
2017-02-13T11:02:32.463Z,245
2017-02-13T11:03:33.270Z,245
2017-02-13T11:04:34.006Z,245
2017-02-13T11:05:34.726Z,245
2017-02-13T11:06:35.450Z,245
2017-02-13T11:07:36.161Z,245
2017-02-13T11:08:36.877Z,245
2017-02-13T11:09:37.610Z,245
2017-02-13T11:10:38.326Z,245
2017-02-13T11:11:39.071Z,245
2017-02-13T11:12:39.782Z,245
2017-02-13T11:13:40.509Z,245
2017-02-13T11:14:41.230Z,245
2017-02-13T11:15:41.950Z,245
2017-02-13T11:16:42.661Z,245
2017-02-13T11:17:43.364Z,240
2017-02-13T11:18:44.081Z,240
2017-02-13T11:19:44.805Z,240
2017-02-13T11:20:45.528Z,240
2017-02-13T11:21:46.262Z,240
2017-02-13T11:22:46.985Z,240
2017-02-13T11:23:47.738Z,240
2017-02-13T11:24:48.459Z,240
2017-02-13T11:25:49.178Z,240
2017-02-13T11:26:49.908Z,240
2017-02-13T11:27:50.616Z,240
2017-02-13T11:28:51.349Z,235
2017-02-13T11:29:52.074Z,235
2017-02-13T11:30:52.773Z,235
2017-02-13T11:31:53.518Z,235
2017-02-13T11:32:54.220Z,235
2017-02-13T11:33:54.943Z,235
2017-02-13T11:34:55.670Z,235
2017-02-13T11:35:56.392Z,235
2017-02-13T11:36:57.223Z,235
2017-02-13T11:37:58.020Z,235
2017-02-13T11:38:58.735Z,230
2017-02-13T11:39:59.435Z,230
2017-02-13T11:41:00.136Z,230
2017-02-13T11:42:00.838Z,230
2017-02-13T11:43:01.564Z,230
2017-02-13T11:44:02.284Z,230
2017-02-13T11:45:03.028Z,230
2017-02-13T11:46:03.775Z,230
2017-02-13T11:47:04.474Z,230
2017-02-13T11:48:05.216Z,230
2017-02-13T11:49:05.962Z,230
2017-02-13T11:50:06.669Z,230
2017-02-13T11:51:07.397Z,230
2017-02-13T11:52:08.088Z,230
2017-02-13T11:53:08.795Z,230
2017-02-13T11:54:09.519Z,230
2017-02-13T11:55:10.217Z,235
2017-02-13T11:56:10.951Z,235
2017-02-13T11:57:11.654Z,235
2017-02-13T11:58:12.357Z,235
2017-02-13T11:59:13.075Z,235
2017-02-13T12:00:13.781Z,235
2017-02-13T12:01:14.506Z,235
2017-02-13T12:02:15.211Z,240
2017-02-13T12:03:15.915Z,235
2017-02-13T12:04:16.624Z,235
2017-02-13T12:05:17.337Z,235
2017-02-13T12:06:18.040Z,235
2017-02-13T12:07:18.729Z,235
2017-02-13T12:08:19.456Z,235
2017-02-13T12:09:20.188Z,235
2017-02-13T12:10:20.889Z,230
2017-02-13T12:11:21.609Z,235
2017-02-13T12:12:22.314Z,235
2017-02-13T12:13:23.025Z,235
2017-02-13T12:14:23.733Z,235
2017-02-13T12:15:24.468Z,230
2017-02-13T12:16:25.194Z,230
2017-02-13T12:17:25.925Z,230
2017-02-13T12:18:26.639Z,225
2017-02-13T12:19:27.338Z,225
2017-02-13T12:20:28.041Z,220
2017-02-13T12:21:28.747Z,220
2017-02-13T12:22:29.427Z,220
2017-02-13T12:23:30.148Z,215
2017-02-13T12:24:30.870Z,215
2017-02-13T12:25:31.583Z,210
2017-02-13T12:26:32.298Z,210
2017-02-13T12:27:33.052Z,205
2017-02-13T12:28:33.761Z,205
2017-02-13T12:29:34.451Z,205
2017-02-13T12:30:35.165Z,200
2017-02-13T12:31:35.868Z,200
2017-02-13T12:32:36.603Z,200
2017-02-13T12:33:37.392Z,200
2017-02-13T12:34:38.121Z,195
2017-02-13T12:35:38.809Z,195
2017-02-13T12:36:39.533Z,195
2017-02-13T12:37:40.243Z,190
2017-02-13T12:38:40.978Z,190
2017-02-13T12:39:41.700Z,195
2017-02-13T12:40:42.430Z,190
2017-02-13T12:41:43.193Z,195
2017-02-13T12:42:43.875Z,195
2017-02-13T12:43:44.588Z,195
2017-02-13T12:45:31.424Z,195
2017-02-13T12:45:46.139Z,195
2017-02-13T12:46:46.830Z,190
2017-02-13T12:47:47.521Z,190
2017-02-13T12:48:48.224Z,190
2017-02-13T12:49:48.942Z,190
2017-02-13T12:50:49.637Z,190
2017-02-13T12:51:50.384Z,185
2017-02-13T12:52:51.086Z,185
2017-02-13T12:53:51.810Z,185
2017-02-13T12:54:52.535Z,190
2017-02-13T12:55:53.257Z,195
2017-02-13T12:56:53.967Z,210
2017-02-13T12:57:54.687Z,240
2017-02-13T12:58:55.429Z,235
2017-02-13T12:59:56.154Z,230
2017-02-13T13:00:56.870Z,220
2017-02-13T13:01:57.567Z,200
2017-02-13T13:02:58.284Z,200
2017-02-13T13:03:58.977Z,190
2017-02-13T13:04:59.779Z,180
2017-02-13T13:06:00.529Z,180
2017-02-13T13:07:01.239Z,180
2017-02-13T13:08:01.940Z,180
2017-02-13T13:09:02.644Z,180
2017-02-13T13:10:03.394Z,175
2017-02-13T13:11:04.087Z,175
2017-02-13T13:12:04.825Z,180
2017-02-13T13:13:05.522Z,175
2017-02-13T13:14:06.222Z,175
2017-02-13T13:15:06.921Z,175
2017-02-13T13:16:07.638Z,175
2017-02-13T13:17:08.336Z,175
2017-02-13T13:18:09.046Z,175
2017-02-13T13:19:09.799Z,175
2017-02-13T13:20:10.510Z,175
2017-02-13T13:21:11.192Z,175
2017-02-13T13:22:11.914Z,175
2017-02-13T13:23:12.657Z,175
2017-02-13T13:24:13.377Z,180
2017-02-13T13:25:14.128Z,175
2017-02-13T13:26:14.857Z,175
2017-02-13T13:27:15.568Z,180
2017-02-13T13:28:16.277Z,180
2017-02-13T13:29:16.977Z,180
2017-02-13T13:30:17.686Z,180
2017-02-13T13:31:18.388Z,175
2017-02-13T13:32:19.123Z,170
2017-02-13T13:33:19.813Z,170
2017-02-13T13:34:20.528Z,170
2017-02-13T13:35:21.257Z,170
2017-02-13T13:36:21.993Z,170
2017-02-13T13:37:22.699Z,165
2017-02-13T13:38:23.398Z,165
2017-02-13T13:39:24.108Z,165
2017-02-13T13:40:24.823Z,165
2017-02-13T13:41:25.502Z,165
2017-02-13T13:42:26.215Z,165
2017-02-13T13:43:26.936Z,165
2017-02-13T13:44:27.645Z,165
2017-02-13T13:45:28.348Z,165
2017-02-13T13:46:29.048Z,160
2017-02-13T13:47:29.782Z,160
2017-02-13T13:48:30.503Z,160
2017-02-13T13:49:31.211Z,160
2017-02-13T13:50:31.898Z,160
2017-02-13T13:51:32.619Z,160
2017-02-13T13:52:33.343Z,155
2017-02-13T13:53:34.101Z,155
2017-02-13T13:54:34.855Z,155
2017-02-13T13:55:35.616Z,155
2017-02-13T13:56:36.327Z,155
2017-02-13T13:57:37.045Z,155
2017-02-13T13:58:37.973Z,155
2017-02-13T13:59:38.671Z,155
2017-02-13T14:00:39.483Z,155
2017-02-13T14:01:40.217Z,150
2017-02-13T14:02:40.914Z,150
2017-02-13T14:03:41.654Z,150
2017-02-13T14:04:42.366Z,150
2017-02-13T14:05:43.154Z,150
2017-02-13T14:06:43.914Z,145
2017-02-13T14:07:44.642Z,150
2017-02-13T14:08:45.338Z,150
2017-02-13T14:09:46.067Z,145
2017-02-13T14:10:46.809Z,145
2017-02-13T14:11:47.496Z,145
2017-02-13T14:12:48.212Z,145
2017-02-13T14:13:48.955Z,145
2017-02-13T14:14:49.652Z,145
2017-02-13T14:15:50.383Z,145
2017-02-13T14:16:51.085Z,145
2017-02-13T14:17:51.782Z,140
2017-02-13T14:18:52.481Z,140
2017-02-13T14:19:53.235Z,140
2017-02-13T14:20:53.953Z,140
2017-02-13T14:21:54.716Z,140
2017-02-13T14:22:55.391Z,140
2017-02-13T14:23:56.090Z,140
2017-02-13T14:24:56.819Z,140